This is the latest recevied weather packets stored in our database for station/object M0HPP-13. If no packets are shown the sender has not sent any weather packets the latest 10 day(s).
| Time | Temp. | Humidity | Pressure | Rain* | Wind** | Luminosity | Snow |
|---|---|---|---|---|---|---|---|
| 1777693819 | 7.78° C | 87% | 1012.6 hPa | 0 mm | - | 0 W/m² | - |
| 1777693219 | 8.89° C | 85% | 1012.6 hPa | 0 mm | - | 0 W/m² | - |
| 1777692619 | 8.89° C | 85% | 1012.6 hPa | 0 mm | - | 0 W/m² | - |
| 1777692019 | 8.89° C | 86% | 1012.8 hPa | 0 mm | - | 0 W/m² | - |
| 1777691419 | 8.33° C | 88% | 1012.8 hPa | 0 mm | - | 0 W/m² | - |
| 1777690819 | 7.78° C | 89% | 1012.8 hPa | 0 mm | - | 0 W/m² | - |
| 1777690219 | 7.78° C | 88% | 1012.8 hPa | 0 mm | - | 0 W/m² | - |
| 1777689619 | 7.78° C | 87% | 1012.9 hPa | 0 mm | - | 0 W/m² | - |
| 1777689019 | 8.33° C | 85% | 1012.8 hPa | 0 mm | - | 0 W/m² | - |
| 1777688419 | 8.33° C | 86% | 1012.9 hPa | 0 mm | - | 0 W/m² | - |
| 1777687819 | 8.89° C | 86% | 1013 hPa | 0 mm | - | 0 W/m² | - |
| 1777687219 | 8.89° C | 85% | 1013.1 hPa | 0 mm | - | 0 W/m² | - |
| 1777686619 | 8.89° C | 84% | 1013.2 hPa | 0 mm | - | 0 W/m² | - |
| 1777686019 | 8.89° C | 84% | 1013.3 hPa | 0 mm | - | 0 W/m² | - |
| 1777685419 | 8.33° C | 86% | 1013.5 hPa | 0 mm | - | 0 W/m² | - |
| 1777684819 | 7.78° C | 87% | 1013.6 hPa | 0 mm | - | 0 W/m² | - |
| 1777684219 | 7.78° C | 87% | 1013.5 hPa | 0 mm | - | 0 W/m² | - |
| 1777683619 | 8.33° C | 85% | 1013.6 hPa | 0 mm | - | 0 W/m² | - |
| 1777683019 | 8.33° C | 83% | 1013.6 hPa | 0 mm | - | 0 W/m² | - |
| 1777682419 | 8.89° C | 82% | 1013.8 hPa | 0 mm | - | 0 W/m² | - |
| 1777681819 | 9.44° C | 80% | 1013.8 hPa | 0 mm | - | 0 W/m² | - |
| 1777681219 | 9.44° C | 80% | 1013.8 hPa | 0 mm | - | 0 W/m² | - |
| 1777680619 | 8.89° C | 83% | 1013.8 hPa | 0 mm | - | 0 W/m² | - |
| 1777680019 | 9.44° C | 82% | 1013.9 hPa | 0 mm | - | 0 W/m² | - |
| 1777679419 | 9.44° C | 83% | 1014 hPa | 0 mm | - | 0 W/m² | - |
* Rain latest hour (hover to see other rain measurements)
** Current wind speed in m/s (hover to see current wind gust speed)